sensor_id;sensor_type;location;lat;lon;timestamp;P1;durP1;ratioP1;P2;durP2;ratioP2
8663;SDS011;4369;47.842;13.096;2023-02-28T00:00:45;5.83;;;5.17;;
8663;SDS011;4369;47.842;13.096;2023-02-28T00:03:12;5.57;;;5.03;;
8663;SDS011;4369;47.842;13.096;2023-02-28T00:05:39;6.23;;;4.90;;
8663;SDS011;4369;47.842;13.096;2023-02-28T00:08:06;6.57;;;5.90;;
8663;SDS011;4369;47.842;13.096;2023-02-28T00:10:35;5.60;;;5.10;;
8663;SDS011;4369;47.842;13.096;2023-02-28T00:13:02;5.80;;;5.20;;
8663;SDS011;4369;47.842;13.096;2023-02-28T00:15:31;5.73;;;5.17;;
8663;SDS011;4369;47.842;13.096;2023-02-28T00:17:58;6.13;;;5.10;;
8663;SDS011;4369;47.842;13.096;2023-02-28T00:20:24;7.03;;;5.60;;
8663;SDS011;4369;47.842;13.096;2023-02-28T00:22:52;6.43;;;5.83;;
8663;SDS011;4369;47.842;13.096;2023-02-28T00:25:20;5.83;;;5.30;;
8663;SDS011;4369;47.842;13.096;2023-02-28T00:27:49;6.70;;;5.87;;
8663;SDS011;4369;47.842;13.096;2023-02-28T00:30:17;6.90;;;6.07;;
8663;SDS011;4369;47.842;13.096;2023-02-28T00:32:44;6.90;;;5.63;;
8663;SDS011;4369;47.842;13.096;2023-02-28T00:35:11;6.67;;;5.77;;
8663;SDS011;4369;47.842;13.096;2023-02-28T00:37:39;7.03;;;5.70;;
8663;SDS011;4369;47.842;13.096;2023-02-28T00:40:06;6.63;;;5.93;;
8663;SDS011;4369;47.842;13.096;2023-02-28T00:42:34;8.50;;;6.17;;
8663;SDS011;4369;47.842;13.096;2023-02-28T00:45:03;6.77;;;6.07;;
8663;SDS011;4369;47.842;13.096;2023-02-28T00:47:31;8.67;;;6.03;;
8663;SDS011;4369;47.842;13.096;2023-02-28T00:49:58;7.13;;;6.43;;
8663;SDS011;4369;47.842;13.096;2023-02-28T00:52:25;8.47;;;6.17;;
8663;SDS011;4369;47.842;13.096;2023-02-28T00:54:52;6.27;;;5.67;;
8663;SDS011;4369;47.842;13.096;2023-02-28T00:57:19;6.40;;;5.67;;
8663;SDS011;4369;47.842;13.096;2023-02-28T00:59:46;8.57;;;5.97;;
8663;SDS011;4369;47.842;13.096;2023-02-28T01:02:14;7.63;;;5.70;;
8663;SDS011;4369;47.842;13.096;2023-02-28T01:04:41;7.57;;;6.50;;
8663;SDS011;4369;47.842;13.096;2023-02-28T01:07:08;6.57;;;5.97;;
8663;SDS011;4369;47.842;13.096;2023-02-28T01:09:34;8.63;;;6.43;;
8663;SDS011;4369;47.842;13.096;2023-02-28T01:12:01;8.17;;;6.67;;
8663;SDS011;4369;47.842;13.096;2023-02-28T01:14:28;6.27;;;5.67;;
8663;SDS011;4369;47.842;13.096;2023-02-28T01:16:55;8.10;;;6.70;;
8663;SDS011;4369;47.842;13.096;2023-02-28T01:19:23;6.73;;;6.00;;
8663;SDS011;4369;47.842;13.096;2023-02-28T01:21:50;7.27;;;6.57;;
8663;SDS011;4369;47.842;13.096;2023-02-28T01:24:17;6.67;;;5.97;;
8663;SDS011;4369;47.842;13.096;2023-02-28T01:26:44;8.73;;;6.30;;
8663;SDS011;4369;47.842;13.096;2023-02-28T01:29:11;6.73;;;5.97;;
8663;SDS011;4369;47.842;13.096;2023-02-28T01:31:38;6.57;;;5.90;;
8663;SDS011;4369;47.842;13.096;2023-02-28T01:34:04;6.67;;;5.97;;
8663;SDS011;4369;47.842;13.096;2023-02-28T01:36:33;7.60;;;6.60;;
8663;SDS011;4369;47.842;13.096;2023-02-28T01:38:59;6.93;;;6.23;;
8663;SDS011;4369;47.842;13.096;2023-02-28T01:41:27;7.27;;;6.10;;
8663;SDS011;4369;47.842;13.096;2023-02-28T01:44:01;7.07;;;6.00;;
8663;SDS011;4369;47.842;13.096;2023-02-28T01:46:31;9.43;;;6.37;;
8663;SDS011;4369;47.842;13.096;2023-02-28T01:49:00;7.20;;;6.50;;
8663;SDS011;4369;47.842;13.096;2023-02-28T01:51:33;8.37;;;6.80;;
8663;SDS011;4369;47.842;13.096;2023-02-28T01:54:06;8.37;;;7.47;;
8663;SDS011;4369;47.842;13.096;2023-02-28T01:56:38;9.67;;;7.27;;
8663;SDS011;4369;47.842;13.096;2023-02-28T01:59:08;7.40;;;6.60;;
8663;SDS011;4369;47.842;13.096;2023-02-28T02:01:36;8.47;;;6.83;;
8663;SDS011;4369;47.842;13.096;2023-02-28T02:04:03;7.20;;;6.50;;
8663;SDS011;4369;47.842;13.096;2023-02-28T02:06:31;8.17;;;6.87;;
8663;SDS011;4369;47.842;13.096;2023-02-28T02:09:03;8.47;;;6.60;;
8663;SDS011;4369;47.842;13.096;2023-02-28T02:11:31;8.17;;;6.87;;
8663;SDS011;4369;47.842;13.096;2023-02-28T02:14:10;7.83;;;6.67;;
8663;SDS011;4369;47.842;13.096;2023-02-28T02:16:57;8.37;;;7.17;;
8663;SDS011;4369;47.842;13.096;2023-02-28T02:25:39;9.73;;;6.97;;
8663;SDS011;4369;47.842;13.096;2023-02-28T02:28:19;9.93;;;7.17;;
8663;SDS011;4369;47.842;13.096;2023-02-28T02:31:22;10.30;;;7.47;;
8663;SDS011;4369;47.842;13.096;2023-02-28T02:37:08;9.07;;;7.70;;
8663;SDS011;4369;47.842;13.096;2023-02-28T02:39:42;7.17;;;6.40;;
8663;SDS011;4369;47.842;13.096;2023-02-28T02:42:15;8.80;;;7.50;;
8663;SDS011;4369;47.842;13.096;2023-02-28T02:44:48;9.23;;;6.70;;
8663;SDS011;4369;47.842;13.096;2023-02-28T02:47:21;8.23;;;7.20;;
8663;SDS011;4369;47.842;13.096;2023-02-28T02:49:55;7.53;;;6.13;;
8663;SDS011;4369;47.842;13.096;2023-02-28T02:52:25;7.67;;;6.90;;
8663;SDS011;4369;47.842;13.096;2023-02-28T02:54:58;7.43;;;6.73;;
8663;SDS011;4369;47.842;13.096;2023-02-28T02:57:29;7.77;;;6.87;;
8663;SDS011;4369;47.842;13.096;2023-02-28T02:59:59;7.80;;;6.97;;
8663;SDS011;4369;47.842;13.096;2023-02-28T03:02:28;8.10;;;6.97;;
8663;SDS011;4369;47.842;13.096;2023-02-28T03:05:01;8.57;;;7.43;;
8663;SDS011;4369;47.842;13.096;2023-02-28T03:07:31;13.10;;;7.13;;
8663;SDS011;4369;47.842;13.096;2023-02-28T03:09:58;7.87;;;7.07;;
8663;SDS011;4369;47.842;13.096;2023-02-28T03:12:27;8.43;;;7.27;;
8663;SDS011;4369;47.842;13.096;2023-02-28T03:15:07;8.63;;;7.27;;
8663;SDS011;4369;47.842;13.096;2023-02-28T03:20:35;9.10;;;7.27;;
8663;SDS011;4369;47.842;13.096;2023-02-28T03:23:10;8.83;;;7.57;;
8663;SDS011;4369;47.842;13.096;2023-02-28T03:25:46;9.13;;;7.70;;
8663;SDS011;4369;47.842;13.096;2023-02-28T03:28:22;10.70;;;7.90;;
8663;SDS011;4369;47.842;13.096;2023-02-28T03:30:57;10.63;;;7.70;;
8663;SDS011;4369;47.842;13.096;2023-02-28T03:33:30;9.87;;;8.33;;
8663;SDS011;4369;47.842;13.096;2023-02-28T03:36:04;10.80;;;8.90;;
8663;SDS011;4369;47.842;13.096;2023-02-28T03:38:35;11.30;;;8.67;;
8663;SDS011;4369;47.842;13.096;2023-02-28T03:41:09;10.03;;;8.13;;
8663;SDS011;4369;47.842;13.096;2023-02-28T03:43:40;9.40;;;8.07;;
8663;SDS011;4369;47.842;13.096;2023-02-28T03:46:12;10.63;;;8.27;;
8663;SDS011;4369;47.842;13.096;2023-02-28T03:48:48;10.13;;;8.60;;
8663;SDS011;4369;47.842;13.096;2023-02-28T03:51:21;10.20;;;8.33;;
8663;SDS011;4369;47.842;13.096;2023-02-28T03:53:50;9.87;;;8.23;;
8663;SDS011;4369;47.842;13.096;2023-02-28T03:56:21;9.77;;;7.50;;
8663;SDS011;4369;47.842;13.096;2023-02-28T03:58:53;9.37;;;7.87;;
8663;SDS011;4369;47.842;13.096;2023-02-28T04:01:25;9.83;;;7.87;;
8663;SDS011;4369;47.842;13.096;2023-02-28T04:03:58;8.83;;;7.23;;
8663;SDS011;4369;47.842;13.096;2023-02-28T04:06:26;10.83;;;8.27;;
8663;SDS011;4369;47.842;13.096;2023-02-28T04:08:56;10.60;;;8.30;;
8663;SDS011;4369;47.842;13.096;2023-02-28T04:11:23;10.60;;;8.57;;
8663;SDS011;4369;47.842;13.096;2023-02-28T04:13:58;11.30;;;8.27;;
8663;SDS011;4369;47.842;13.096;2023-02-28T04:16:25;12.07;;;8.97;;
8663;SDS011;4369;47.842;13.096;2023-02-28T04:18:52;11.10;;;8.40;;
8663;SDS011;4369;47.842;13.096;2023-02-28T04:21:30;11.13;;;8.70;;
8663;SDS011;4369;47.842;13.096;2023-02-28T04:23:57;10.80;;;7.93;;
8663;SDS011;4369;47.842;13.096;2023-02-28T04:26:28;10.20;;;8.03;;
8663;SDS011;4369;47.842;13.096;2023-02-28T04:28:55;9.60;;;8.23;;
8663;SDS011;4369;47.842;13.096;2023-02-28T04:31:22;11.83;;;8.80;;
8663;SDS011;4369;47.842;13.096;2023-02-28T04:33:49;11.77;;;8.13;;
8663;SDS011;4369;47.842;13.096;2023-02-28T04:36:16;10.33;;;8.10;;
8663;SDS011;4369;47.842;13.096;2023-02-28T04:38:45;9.50;;;8.23;;
8663;SDS011;4369;47.842;13.096;2023-02-28T04:41:12;8.03;;;7.07;;
8663;SDS011;4369;47.842;13.096;2023-02-28T04:43:39;9.30;;;7.40;;
8663;SDS011;4369;47.842;13.096;2023-02-28T04:46:06;8.13;;;7.17;;
8663;SDS011;4369;47.842;13.096;2023-02-28T04:48:34;10.73;;;7.83;;
8663;SDS011;4369;47.842;13.096;2023-02-28T04:51:03;10.87;;;8.47;;
8663;SDS011;4369;47.842;13.096;2023-02-28T04:53:31;13.87;;;9.70;;
8663;SDS011;4369;47.842;13.096;2023-02-28T04:56:00;10.33;;;8.23;;
8663;SDS011;4369;47.842;13.096;2023-02-28T04:58:27;12.80;;;8.37;;
8663;SDS011;4369;47.842;13.096;2023-02-28T05:00:56;13.53;;;9.40;;
8663;SDS011;4369;47.842;13.096;2023-02-28T05:03:28;17.37;;;9.33;;
8663;SDS011;4369;47.842;13.096;2023-02-28T05:05:55;12.27;;;8.77;;
8663;SDS011;4369;47.842;13.096;2023-02-28T05:08:21;12.00;;;9.37;;
8663;SDS011;4369;47.842;13.096;2023-02-28T05:10:48;13.30;;;10.17;;
8663;SDS011;4369;47.842;13.096;2023-02-28T05:13:16;13.77;;;10.30;;
8663;SDS011;4369;47.842;13.096;2023-02-28T05:15:43;14.70;;;10.57;;
8663;SDS011;4369;47.842;13.096;2023-02-28T05:18:10;12.17;;;9.83;;
8663;SDS011;4369;47.842;13.096;2023-02-28T05:20:38;12.37;;;9.87;;
8663;SDS011;4369;47.842;13.096;2023-02-28T05:23:05;14.00;;;9.40;;
8663;SDS011;4369;47.842;13.096;2023-02-28T05:25:32;11.10;;;9.00;;
8663;SDS011;4369;47.842;13.096;2023-02-28T05:27:59;10.97;;;9.50;;
8663;SDS011;4369;47.842;13.096;2023-02-28T05:30:27;12.33;;;9.03;;
8663;SDS011;4369;47.842;13.096;2023-02-28T05:32:55;12.87;;;8.67;;
8663;SDS011;4369;47.842;13.096;2023-02-28T05:35:22;11.33;;;9.20;;
8663;SDS011;4369;47.842;13.096;2023-02-28T05:37:48;11.53;;;8.53;;
8663;SDS011;4369;47.842;13.096;2023-02-28T05:40:16;11.40;;;7.97;;
8663;SDS011;4369;47.842;13.096;2023-02-28T05:42:44;11.13;;;8.70;;
8663;SDS011;4369;47.842;13.096;2023-02-28T05:45:11;14.37;;;9.43;;
8663;SDS011;4369;47.842;13.096;2023-02-28T05:47:39;14.53;;;9.37;;
8663;SDS011;4369;47.842;13.096;2023-02-28T05:50:07;12.33;;;9.47;;
8663;SDS011;4369;47.842;13.096;2023-02-28T05:52:35;11.50;;;9.30;;
8663;SDS011;4369;47.842;13.096;2023-02-28T05:55:02;20.97;;;10.43;;
8663;SDS011;4369;47.842;13.096;2023-02-28T05:57:30;14.93;;;10.27;;
8663;SDS011;4369;47.842;13.096;2023-02-28T05:59:56;13.63;;;10.17;;
8663;SDS011;4369;47.842;13.096;2023-02-28T06:02:23;15.53;;;10.67;;
8663;SDS011;4369;47.842;13.096;2023-02-28T06:04:51;18.00;;;11.87;;
8663;SDS011;4369;47.842;13.096;2023-02-28T06:07:18;18.17;;;12.27;;
8663;SDS011;4369;47.842;13.096;2023-02-28T06:09:47;15.67;;;11.10;;
8663;SDS011;4369;47.842;13.096;2023-02-28T06:12:14;15.07;;;9.37;;
8663;SDS011;4369;47.842;13.096;2023-02-28T06:14:41;14.53;;;10.00;;
8663;SDS011;4369;47.842;13.096;2023-02-28T06:17:08;13.67;;;9.03;;
8663;SDS011;4369;47.842;13.096;2023-02-28T06:19:36;15.00;;;8.70;;
8663;SDS011;4369;47.842;13.096;2023-02-28T06:22:05;14.20;;;8.83;;
8663;SDS011;4369;47.842;13.096;2023-02-28T06:24:31;11.73;;;9.27;;
8663;SDS011;4369;47.842;13.096;2023-02-28T06:26:58;11.17;;;8.63;;
8663;SDS011;4369;47.842;13.096;2023-02-28T06:29:30;12.40;;;9.73;;
8663;SDS011;4369;47.842;13.096;2023-02-28T06:31:57;14.23;;;10.27;;
8663;SDS011;4369;47.842;13.096;2023-02-28T06:34:23;15.77;;;11.07;;
8663;SDS011;4369;47.842;13.096;2023-02-28T06:36:51;12.93;;;10.10;;
8663;SDS011;4369;47.842;13.096;2023-02-28T06:39:19;19.23;;;10.87;;
8663;SDS011;4369;47.842;13.096;2023-02-28T06:41:46;17.10;;;10.50;;
8663;SDS011;4369;47.842;13.096;2023-02-28T06:44:14;17.07;;;10.70;;
8663;SDS011;4369;47.842;13.096;2023-02-28T06:46:43;17.73;;;13.00;;
8663;SDS011;4369;47.842;13.096;2023-02-28T06:49:11;25.10;;;15.67;;
8663;SDS011;4369;47.842;13.096;2023-02-28T06:51:39;19.30;;;16.13;;
8663;SDS011;4369;47.842;13.096;2023-02-28T06:54:09;23.93;;;14.47;;
8663;SDS011;4369;47.842;13.096;2023-02-28T06:56:38;13.97;;;11.13;;
8663;SDS011;4369;47.842;13.096;2023-02-28T06:59:05;13.83;;;10.27;;
8663;SDS011;4369;47.842;13.096;2023-02-28T07:01:32;19.10;;;11.23;;
8663;SDS011;4369;47.842;13.096;2023-02-28T07:03:59;14.20;;;10.27;;
8663;SDS011;4369;47.842;13.096;2023-02-28T07:06:27;18.87;;;13.50;;
8663;SDS011;4369;47.842;13.096;2023-02-28T07:08:54;20.97;;;15.33;;
8663;SDS011;4369;47.842;13.096;2023-02-28T07:11:21;19.40;;;16.03;;
8663;SDS011;4369;47.842;13.096;2023-02-28T07:13:51;20.57;;;17.43;;
8663;SDS011;4369;47.842;13.096;2023-02-28T07:16:18;20.90;;;15.03;;
8663;SDS011;4369;47.842;13.096;2023-02-28T07:18:45;17.53;;;13.23;;
8663;SDS011;4369;47.842;13.096;2023-02-28T07:21:13;21.00;;;11.87;;
8663;SDS011;4369;47.842;13.096;2023-02-28T07:23:40;16.33;;;10.57;;
8663;SDS011;4369;47.842;13.096;2023-02-28T07:26:08;22.57;;;13.27;;
8663;SDS011;4369;47.842;13.096;2023-02-28T07:28:39;16.20;;;11.70;;
8663;SDS011;4369;47.842;13.096;2023-02-28T07:31:08;12.37;;;10.37;;
8663;SDS011;4369;47.842;13.096;2023-02-28T07:33:36;14.17;;;10.10;;
8663;SDS011;4369;47.842;13.096;2023-02-28T07:36:04;13.93;;;9.20;;
8663;SDS011;4369;47.842;13.096;2023-02-28T07:38:34;10.40;;;8.70;;
8663;SDS011;4369;47.842;13.096;2023-02-28T07:41:01;11.10;;;7.83;;
8663;SDS011;4369;47.842;13.096;2023-02-28T07:43:30;13.50;;;8.57;;
8663;SDS011;4369;47.842;13.096;2023-02-28T07:46:00;14.97;;;9.30;;
8663;SDS011;4369;47.842;13.096;2023-02-28T07:48:29;11.47;;;8.77;;
8663;SDS011;4369;47.842;13.096;2023-02-28T07:50:56;16.90;;;8.27;;
8663;SDS011;4369;47.842;13.096;2023-02-28T07:53:24;13.60;;;8.80;;
8663;SDS011;4369;47.842;13.096;2023-02-28T07:55:54;11.73;;;8.20;;
8663;SDS011;4369;47.842;13.096;2023-02-28T07:58:21;11.00;;;8.17;;
8663;SDS011;4369;47.842;13.096;2023-02-28T08:00:49;17.03;;;9.17;;
8663;SDS011;4369;47.842;13.096;2023-02-28T08:03:16;12.33;;;8.60;;
8663;SDS011;4369;47.842;13.096;2023-02-28T08:05:44;18.07;;;9.63;;
8663;SDS011;4369;47.842;13.096;2023-02-28T08:08:12;14.07;;;8.90;;
8663;SDS011;4369;47.842;13.096;2023-02-28T08:10:40;14.13;;;8.67;;
8663;SDS011;4369;47.842;13.096;2023-02-28T08:13:07;9.77;;;8.23;;
8663;SDS011;4369;47.842;13.096;2023-02-28T08:15:34;10.10;;;8.27;;
8663;SDS011;4369;47.842;13.096;2023-02-28T08:18:01;13.33;;;8.53;;
8663;SDS011;4369;47.842;13.096;2023-02-28T08:20:28;12.30;;;9.60;;
8663;SDS011;4369;47.842;13.096;2023-02-28T08:22:57;14.83;;;9.87;;
8663;SDS011;4369;47.842;13.096;2023-02-28T08:25:24;16.30;;;10.30;;
8663;SDS011;4369;47.842;13.096;2023-02-28T08:27:51;16.97;;;10.00;;
8663;SDS011;4369;47.842;13.096;2023-02-28T08:30:18;19.27;;;10.43;;
8663;SDS011;4369;47.842;13.096;2023-02-28T08:32:45;19.50;;;10.30;;
8663;SDS011;4369;47.842;13.096;2023-02-28T08:35:12;23.53;;;10.73;;
8663;SDS011;4369;47.842;13.096;2023-02-28T08:37:39;15.73;;;9.93;;
8663;SDS011;4369;47.842;13.096;2023-02-28T08:40:08;13.10;;;9.57;;
8663;SDS011;4369;47.842;13.096;2023-02-28T08:42:38;12.17;;;9.43;;
8663;SDS011;4369;47.842;13.096;2023-02-28T08:45:05;11.57;;;9.33;;
8663;SDS011;4369;47.842;13.096;2023-02-28T08:47:33;12.43;;;9.80;;
8663;SDS011;4369;47.842;13.096;2023-02-28T08:49:59;20.47;;;10.60;;
8663;SDS011;4369;47.842;13.096;2023-02-28T08:52:26;16.03;;;10.50;;
8663;SDS011;4369;47.842;13.096;2023-02-28T08:54:53;13.40;;;9.43;;
8663;SDS011;4369;47.842;13.096;2023-02-28T08:57:21;17.17;;;11.73;;
8663;SDS011;4369;47.842;13.096;2023-02-28T08:59:50;15.53;;;11.97;;
8663;SDS011;4369;47.842;13.096;2023-02-28T09:02:17;22.83;;;15.70;;
8663;SDS011;4369;47.842;13.096;2023-02-28T09:04:44;26.17;;;15.23;;
8663;SDS011;4369;47.842;13.096;2023-02-28T09:07:11;21.30;;;15.73;;
8663;SDS011;4369;47.842;13.096;2023-02-28T09:09:38;21.97;;;15.47;;
8663;SDS011;4369;47.842;13.096;2023-02-28T09:12:19;22.43;;;15.17;;
8663;SDS011;4369;47.842;13.096;2023-02-28T09:14:47;21.77;;;15.90;;
8663;SDS011;4369;47.842;13.096;2023-02-28T09:17:14;20.70;;;15.17;;
8663;SDS011;4369;47.842;13.096;2023-02-28T09:19:41;29.87;;;15.60;;
8663;SDS011;4369;47.842;13.096;2023-02-28T09:22:08;24.60;;;15.63;;
8663;SDS011;4369;47.842;13.096;2023-02-28T09:24:36;22.93;;;15.47;;
8663;SDS011;4369;47.842;13.096;2023-02-28T09:27:03;21.40;;;14.67;;
8663;SDS011;4369;47.842;13.096;2023-02-28T09:29:30;20.97;;;15.73;;
8663;SDS011;4369;47.842;13.096;2023-02-28T09:31:59;19.97;;;15.43;;
8663;SDS011;4369;47.842;13.096;2023-02-28T09:34:26;21.57;;;14.90;;
8663;SDS011;4369;47.842;13.096;2023-02-28T09:36:55;25.10;;;15.70;;
8663;SDS011;4369;47.842;13.096;2023-02-28T09:39:22;21.20;;;15.80;;
8663;SDS011;4369;47.842;13.096;2023-02-28T09:41:52;23.07;;;15.03;;
8663;SDS011;4369;47.842;13.096;2023-02-28T09:44:20;23.73;;;16.20;;
8663;SDS011;4369;47.842;13.096;2023-02-28T09:46:54;22.33;;;15.63;;
8663;SDS011;4369;47.842;13.096;2023-02-28T09:49:28;19.43;;;15.37;;
8663;SDS011;4369;47.842;13.096;2023-02-28T09:52:01;21.40;;;16.23;;
8663;SDS011;4369;47.842;13.096;2023-02-28T09:54:31;21.83;;;16.27;;
8663;SDS011;4369;47.842;13.096;2023-02-28T09:56:59;23.20;;;15.37;;
8663;SDS011;4369;47.842;13.096;2023-02-28T09:59:35;21.97;;;15.70;;
8663;SDS011;4369;47.842;13.096;2023-02-28T10:02:21;22.00;;;15.87;;
8663;SDS011;4369;47.842;13.096;2023-02-28T10:05:12;20.03;;;14.83;;
8663;SDS011;4369;47.842;13.096;2023-02-28T10:07:46;20.97;;;15.33;;
8663;SDS011;4369;47.842;13.096;2023-02-28T10:10:22;20.37;;;15.83;;
8663;SDS011;4369;47.842;13.096;2023-02-28T10:12:54;22.97;;;16.53;;
8663;SDS011;4369;47.842;13.096;2023-02-28T10:15:25;21.73;;;16.97;;
8663;SDS011;4369;47.842;13.096;2023-02-28T10:17:58;22.93;;;17.63;;
8663;SDS011;4369;47.842;13.096;2023-02-28T10:20:27;22.60;;;16.80;;
8663;SDS011;4369;47.842;13.096;2023-02-28T10:23:00;22.67;;;16.43;;
8663;SDS011;4369;47.842;13.096;2023-02-28T10:25:32;22.07;;;16.47;;
8663;SDS011;4369;47.842;13.096;2023-02-28T10:28:04;19.17;;;16.10;;
8663;SDS011;4369;47.842;13.096;2023-02-28T10:30:36;21.87;;;17.43;;
8663;SDS011;4369;47.842;13.096;2023-02-28T10:33:09;21.13;;;17.20;;
8663;SDS011;4369;47.842;13.096;2023-02-28T10:35:47;22.00;;;16.10;;
8663;SDS011;4369;47.842;13.096;2023-02-28T10:38:15;22.37;;;17.20;;
8663;SDS011;4369;47.842;13.096;2023-02-28T10:40:44;23.37;;;18.00;;
8663;SDS011;4369;47.842;13.096;2023-02-28T10:43:21;22.27;;;18.10;;
8663;SDS011;4369;47.842;13.096;2023-02-28T10:45:53;23.37;;;17.57;;
8663;SDS011;4369;47.842;13.096;2023-02-28T10:48:37;25.10;;;17.63;;
8663;SDS011;4369;47.842;13.096;2023-02-28T10:51:06;20.97;;;18.07;;
8663;SDS011;4369;47.842;13.096;2023-02-28T10:53:35;23.07;;;19.17;;
8663;SDS011;4369;47.842;13.096;2023-02-28T10:56:14;24.03;;;18.33;;
8663;SDS011;4369;47.842;13.096;2023-02-28T10:58:51;23.00;;;17.13;;
8663;SDS011;4369;47.842;13.096;2023-02-28T11:01:20;22.40;;;17.90;;
8663;SDS011;4369;47.842;13.096;2023-02-28T11:03:51;23.03;;;18.17;;
8663;SDS011;4369;47.842;13.096;2023-02-28T11:06:19;23.63;;;18.63;;
8663;SDS011;4369;47.842;13.096;2023-02-28T11:08:48;21.63;;;17.60;;
8663;SDS011;4369;47.842;13.096;2023-02-28T11:11:17;21.83;;;18.17;;
8663;SDS011;4369;47.842;13.096;2023-02-28T11:13:46;23.80;;;18.47;;
8663;SDS011;4369;47.842;13.096;2023-02-28T11:16:16;22.50;;;18.20;;
8663;SDS011;4369;47.842;13.096;2023-02-28T11:18:44;23.67;;;18.90;;
8663;SDS011;4369;47.842;13.096;2023-02-28T11:21:17;19.40;;;17.30;;
8663;SDS011;4369;47.842;13.096;2023-02-28T11:23:46;20.67;;;17.53;;
8663;SDS011;4369;47.842;13.096;2023-02-28T11:26:16;22.13;;;17.10;;
8663;SDS011;4369;47.842;13.096;2023-02-28T11:29:03;20.03;;;15.87;;
8663;SDS011;4369;47.842;13.096;2023-02-28T11:31:37;20.00;;;16.53;;
8663;SDS011;4369;47.842;13.096;2023-02-28T11:34:11;18.47;;;15.07;;
8663;SDS011;4369;47.842;13.096;2023-02-28T11:36:52;17.93;;;14.63;;
8663;SDS011;4369;47.842;13.096;2023-02-28T11:39:21;19.83;;;15.63;;
8663;SDS011;4369;47.842;13.096;2023-02-28T11:42:02;16.80;;;15.00;;
8663;SDS011;4369;47.842;13.096;2023-02-28T11:44:42;18.53;;;14.67;;
8663;SDS011;4369;47.842;13.096;2023-02-28T11:47:21;17.10;;;15.27;;
8663;SDS011;4369;47.842;13.096;2023-02-28T11:50:07;16.77;;;14.57;;
8663;SDS011;4369;47.842;13.096;2023-02-28T11:52:50;18.33;;;16.33;;
8663;SDS011;4369;47.842;13.096;2023-02-28T11:55:20;17.03;;;15.33;;
8663;SDS011;4369;47.842;13.096;2023-02-28T11:57:55;16.60;;;14.90;;
8663;SDS011;4369;47.842;13.096;2023-02-28T12:00:36;20.50;;;14.77;;
8663;SDS011;4369;47.842;13.096;2023-02-28T12:03:16;15.43;;;13.95;;
8663;SDS011;4369;47.842;13.096;2023-02-28T12:05:58;16.02;;;14.48;;
8663;SDS011;4369;47.842;13.096;2023-02-28T12:08:42;15.68;;;14.27;;
8663;SDS011;4369;47.842;13.096;2023-02-28T12:11:17;15.38;;;13.98;;
8663;SDS011;4369;47.842;13.096;2023-02-28T12:13:57;15.25;;;13.85;;
8663;SDS011;4369;47.842;13.096;2023-02-28T12:16:35;15.38;;;14.00;;
8663;SDS011;4369;47.842;13.096;2023-02-28T12:19:16;15.88;;;14.38;;
8663;SDS011;4369;47.842;13.096;2023-02-28T12:21:51;17.60;;;16.08;;
8663;SDS011;4369;47.842;13.096;2023-02-28T12:27:33;16.08;;;14.57;;
8663;SDS011;4369;47.842;13.096;2023-02-28T12:30:03;17.25;;;15.55;;
8663;SDS011;4369;47.842;13.096;2023-02-28T12:32:40;15.55;;;14.05;;
8663;SDS011;4369;47.842;13.096;2023-02-28T12:35:11;16.73;;;15.23;;
8663;SDS011;4369;47.842;13.096;2023-02-28T12:37:41;16.20;;;14.80;;
8663;SDS011;4369;47.842;13.096;2023-02-28T12:40:12;16.88;;;15.38;;
8663;SDS011;4369;47.842;13.096;2023-02-28T12:42:44;16.27;;;14.63;;
8663;SDS011;4369;47.842;13.096;2023-02-28T12:45:16;17.77;;;16.27;;
8663;SDS011;4369;47.842;13.096;2023-02-28T12:47:46;16.95;;;15.45;;
8663;SDS011;4369;47.842;13.096;2023-02-28T12:50:16;17.05;;;15.50;;
8663;SDS011;4369;47.842;13.096;2023-02-28T12:52:47;17.63;;;16.05;;
8663;SDS011;4369;47.842;13.096;2023-02-28T12:55:20;17.77;;;16.23;;
8663;SDS011;4369;47.842;13.096;2023-02-28T12:57:55;17.90;;;16.48;;
8663;SDS011;4369;47.842;13.096;2023-02-28T13:00:29;17.90;;;16.30;;
8663;SDS011;4369;47.842;13.096;2023-02-28T13:03:06;18.23;;;16.65;;
8663;SDS011;4369;47.842;13.096;2023-02-28T13:06:05;19.00;;;17.20;;
8663;SDS011;4369;47.842;13.096;2023-02-28T13:09:03;18.80;;;17.17;;
8663;SDS011;4369;47.842;13.096;2023-02-28T13:11:38;17.23;;;15.82;;
8663;SDS011;4369;47.842;13.096;2023-02-28T13:14:18;17.52;;;15.93;;
8663;SDS011;4369;47.842;13.096;2023-02-28T13:16:52;17.35;;;15.90;;
8663;SDS011;4369;47.842;13.096;2023-02-28T13:19:23;19.80;;;17.83;;
8663;SDS011;4369;47.842;13.096;2023-02-28T13:21:51;16.98;;;15.57;;
8663;SDS011;4369;47.842;13.096;2023-02-28T13:24:37;18.23;;;16.42;;
8663;SDS011;4369;47.842;13.096;2023-02-28T13:33:23;17.20;;;15.70;;
8663;SDS011;4369;47.842;13.096;2023-02-28T13:36:01;17.88;;;16.17;;
8663;SDS011;4369;47.842;13.096;2023-02-28T13:38:36;19.92;;;17.30;;
8663;SDS011;4369;47.842;13.096;2023-02-28T13:44:10;22.20;;;19.80;;
8663;SDS011;4369;47.842;13.096;2023-02-28T13:49:39;20.27;;;17.73;;
8663;SDS011;4369;47.842;13.096;2023-02-28T13:52:07;19.37;;;16.90;;
8663;SDS011;4369;47.842;13.096;2023-02-28T13:54:43;19.50;;;17.37;;
8663;SDS011;4369;47.842;13.096;2023-02-28T13:57:23;18.97;;;17.00;;
8663;SDS011;4369;47.842;13.096;2023-02-28T14:00:02;18.67;;;16.67;;
8663;SDS011;4369;47.842;13.096;2023-02-28T14:02:46;18.50;;;16.50;;
8663;SDS011;4369;47.842;13.096;2023-02-28T14:05:27;19.37;;;17.30;;
8663;SDS011;4369;47.842;13.096;2023-02-28T14:07:56;18.87;;;16.90;;
8663;SDS011;4369;47.842;13.096;2023-02-28T14:10:26;20.33;;;17.53;;
8663;SDS011;4369;47.842;13.096;2023-02-28T14:12:58;21.37;;;17.37;;
8663;SDS011;4369;47.842;13.096;2023-02-28T14:15:30;19.50;;;16.73;;
8663;SDS011;4369;47.842;13.096;2023-02-28T14:18:19;18.67;;;15.97;;
8663;SDS011;4369;47.842;13.096;2023-02-28T14:20:52;19.00;;;16.07;;
8663;SDS011;4369;47.842;13.096;2023-02-28T14:29:19;18.73;;;16.70;;
8663;SDS011;4369;47.842;13.096;2023-02-28T14:32:03;20.23;;;16.07;;
8663;SDS011;4369;47.842;13.096;2023-02-28T14:34:41;19.10;;;16.13;;
8663;SDS011;4369;47.842;13.096;2023-02-28T14:37:18;19.07;;;16.33;;
8663;SDS011;4369;47.842;13.096;2023-02-28T14:39:49;17.47;;;15.57;;
8663;SDS011;4369;47.842;13.096;2023-02-28T14:42:27;17.83;;;15.50;;
8663;SDS011;4369;47.842;13.096;2023-02-28T14:44:55;17.50;;;15.70;;
8663;SDS011;4369;47.842;13.096;2023-02-28T14:47:22;19.60;;;16.10;;
8663;SDS011;4369;47.842;13.096;2023-02-28T14:49:51;17.07;;;15.27;;
8663;SDS011;4369;47.842;13.096;2023-02-28T14:52:21;19.43;;;16.27;;
8663;SDS011;4369;47.842;13.096;2023-02-28T14:54:51;18.73;;;16.03;;
8663;SDS011;4369;47.842;13.096;2023-02-28T14:57:21;18.47;;;15.43;;
8663;SDS011;4369;47.842;13.096;2023-02-28T14:59:56;18.07;;;15.87;;
8663;SDS011;4369;47.842;13.096;2023-02-28T15:02:29;19.43;;;15.70;;
8663;SDS011;4369;47.842;13.096;2023-02-28T15:04:58;19.47;;;15.97;;
8663;SDS011;4369;47.842;13.096;2023-02-28T15:07:28;19.63;;;14.77;;
8663;SDS011;4369;47.842;13.096;2023-02-28T15:10:13;18.23;;;15.17;;
8663;SDS011;4369;47.842;13.096;2023-02-28T15:12:45;18.27;;;14.93;;
8663;SDS011;4369;47.842;13.096;2023-02-28T15:15:18;17.57;;;14.93;;
8663;SDS011;4369;47.842;13.096;2023-02-28T15:17:46;16.77;;;14.97;;
8663;SDS011;4369;47.842;13.096;2023-02-28T15:20:17;20.10;;;16.40;;
8663;SDS011;4369;47.842;13.096;2023-02-28T15:22:47;20.60;;;15.13;;
8663;SDS011;4369;47.842;13.096;2023-02-28T15:25:17;19.10;;;15.30;;
8663;SDS011;4369;47.842;13.096;2023-02-28T15:27:47;19.40;;;15.00;;
8663;SDS011;4369;47.842;13.096;2023-02-28T15:30:16;19.30;;;14.37;;
8663;SDS011;4369;47.842;13.096;2023-02-28T15:32:44;20.63;;;15.83;;
8663;SDS011;4369;47.842;13.096;2023-02-28T15:35:29;18.50;;;14.83;;
8663;SDS011;4369;47.842;13.096;2023-02-28T15:38:00;20.00;;;14.67;;